Time;durP1;ratioP1;P1;durP2;ratioP2;P2;SDS_P1;SDS_P2;PMS_P1;PMS_P2;Temp;Humidity;BMP_temperature;BMP_pressure;BME280_temperature;BME280_humidity;BME280_pressure;Samples;Min_cycle;Max_cycle;Signal;HPM_P1;HPM_P2
2023/04/26 00:01:57;;;;;;;;;;;5.60;99.90;;;;;;5080186;28;20442;-47
2023/04/26 00:04:24;;;;;;;1.27;0.80;;;5.60;99.90;;;;;;5084625;28;19924;-47
2023/04/26 00:06:51;;;;;;;3.10;0.75;;;5.60;99.90;;;;;;5072384;28;20048;-46
2023/04/26 00:09:18;;;;;;;1.20;0.90;;;5.60;99.90;;;;;;5078396;28;20036;-46
2023/04/26 00:11:45;;;;;;;1.67;0.95;;;5.60;99.90;;;;;;5086632;28;20047;-46
2023/04/26 00:14:12;;;;;;;3.13;1.15;;;5.50;99.90;;;;;;5096313;28;20048;-46
2023/04/26 00:16:39;;;;;;;1.48;0.93;;;5.60;99.90;;;;;;5109079;28;20454;-46
2023/04/26 00:19:05;;;;;;;3.53;1.50;;;5.60;99.90;;;;;;5094041;28;20210;-46
2023/04/26 00:21:32;;;;;;;3.97;1.52;;;5.60;99.90;;;;;;5093525;28;20036;-46
2023/04/26 00:23:59;;;;;;;2.70;1.33;;;5.60;99.90;;;;;;5110679;28;20442;-47
2023/04/26 00:26:26;;;;;;;2.72;1.70;;;5.70;99.90;;;;;;5094030;28;20116;-46
2023/04/26 00:28:53;;;;;;;5.85;1.73;;;5.70;99.90;;;;;;5081965;28;20047;-46
2023/04/26 00:31:20;;;;;;;2.95;2.08;;;5.70;99.90;;;;;;5087297;28;20067;-46
2023/04/26 00:33:47;;;;;;;3.75;2.50;;;5.70;99.90;;;;;;5062367;28;20064;-46
2023/04/26 00:36:17;;;;;;;3.67;2.50;;;5.80;99.90;;;;;;5076358;28;20086;-46
2023/04/26 00:38:45;;;;;;;3.67;2.72;;;5.70;99.90;;;;;;5064299;28;20054;-46
2023/04/26 00:41:13;;;;;;;5.32;3.10;;;5.70;99.90;;;;;;5083081;28;20051;-47
2023/04/26 00:43:40;;;;;;;4.95;3.10;;;5.80;99.90;;;;;;5114703;28;20035;-47
2023/04/26 00:46:08;;;;;;;4.40;3.28;;;5.80;99.90;;;;;;5095831;28;20047;-48
2023/04/26 00:48:38;;;;;;;6.07;3.63;;;5.70;99.90;;;;;;5086432;28;20080;-47
2023/04/26 00:51:05;;;;;;;6.22;3.58;;;5.80;99.90;;;;;;5090819;28;20040;-46
2023/04/26 00:53:35;;;;;;;6.78;3.95;;;5.80;99.90;;;;;;5075410;28;20052;-46
2023/04/26 00:56:02;;;;;;;5.28;3.50;;;5.80;99.90;;;;;;5085302;28;20043;-47
2023/04/26 00:58:29;;;;;;;;;;;5.80;99.90;;;;;;5113970;28;20048;-46
2023/04/26 01:00:56;;;;;;;6.97;3.80;;;5.80;99.90;;;;;;5107861;28;19961;-46
2023/04/26 01:03:23;;;;;;;5.65;3.75;;;5.80;99.90;;;;;;5086029;28;20043;-46
2023/04/26 01:05:51;;;;;;;4.88;3.13;;;5.80;99.90;;;;;;5113372;28;20048;-46
2023/04/26 01:08:19;;;;;;;3.95;2.55;;;5.80;99.90;;;;;;5095156;28;20048;-45
2023/04/26 01:10:47;;;;;;;5.47;3.55;;;5.80;99.90;;;;;;5110387;28;20050;-47
2023/04/26 01:13:15;;;;;;;4.63;3.03;;;5.80;99.90;;;;;;5095995;28;20105;-45
2023/04/26 01:15:46;;;;;;;6.90;3.22;;;5.80;99.90;;;;;;5114030;28;20073;-46
2023/04/26 01:18:13;;;;;;;5.93;3.17;;;5.80;99.90;;;;;;5090081;28;20105;-45
2023/04/26 01:20:41;;;;;;;5.72;3.72;;;5.80;99.90;;;;;;5114014;28;20035;-46
2023/04/26 01:23:10;;;;;;;5.07;3.60;;;5.80;99.90;;;;;;5095777;28;20055;-46
2023/04/26 01:25:37;;;;;;;5.97;3.63;;;5.80;99.90;;;;;;5107899;28;20081;-46
2023/04/26 01:28:04;;;;;;;6.57;3.70;;;5.70;99.90;;;;;;5070811;28;20052;-46
2023/04/26 01:30:31;;;;;;;5.65;3.45;;;5.70;99.90;;;;;;5113801;28;20048;-46
2023/04/26 01:33:01;;;;;;;5.20;3.45;;;5.70;99.90;;;;;;5094750;28;20047;-46
2023/04/26 01:35:28;;;;;;;5.40;3.03;;;5.70;99.90;;;;;;5108259;28;20048;-46
2023/04/26 01:37:55;;;;;;;3.63;2.38;;;5.80;99.90;;;;;;5092441;28;20039;-46
2023/04/26 01:40:22;;;;;;;4.60;2.50;;;5.80;99.90;;;;;;5095141;28;20047;-46
2023/04/26 01:42:48;;;;;;;4.65;2.15;;;5.80;99.90;;;;;;5114112;28;20407;-46
2023/04/26 01:45:16;;;;;;;3.13;1.85;;;5.70;99.90;;;;;;5086668;28;20050;-46
2023/04/26 01:48:01;;;;;;;3.08;2.15;;;5.70;99.90;;;;;;5113136;28;20096;-45
2023/04/26 01:50:30;;;;;;;3.38;2.08;;;5.60;99.90;;;;;;5094824;28;20075;-46
2023/04/26 01:52:57;;;;;;;3.47;2.03;;;5.50;99.90;;;;;;5080473;28;20056;-46
2023/04/26 01:55:24;;;;;;;2.47;1.42;;;5.50;99.90;;;;;;5113635;28;20039;-46
2023/04/26 01:57:50;;;;;;;3.00;1.73;;;5.50;99.90;;;;;;5095231;28;20513;-47
2023/04/26 02:00:17;;;;;;;5.22;2.03;;;5.50;99.90;;;;;;5095095;28;20092;-46
2023/04/26 02:02:48;;;;;;;2.65;1.80;;;5.60;99.90;;;;;;5075909;28;20036;-46
2023/04/26 02:05:14;;;;;;;3.85;1.90;;;5.60;99.90;;;;;;5074282;28;20050;-46
2023/04/26 02:07:41;;;;;;;4.15;1.95;;;5.70;99.90;;;;;;5074783;28;20473;-46
2023/04/26 02:10:08;;;;;;;5.10;1.90;;;5.70;99.90;;;;;;5074559;28;20048;-46
2023/04/26 02:12:35;;;;;;;3.83;2.42;;;5.70;99.90;;;;;;5094807;28;20553;-46
2023/04/26 02:15:02;;;;;;;4.60;2.35;;;5.70;99.90;;;;;;5094504;28;20541;-46
2023/04/26 02:17:28;;;;;;;6.25;2.30;;;5.70;99.90;;;;;;5095232;28;20043;-46
2023/04/26 02:19:55;;;;;;;2.80;1.88;;;5.70;99.90;;;;;;5076705;28;20135;-46
2023/04/26 02:22:24;;;;;;;3.50;2.30;;;5.60;99.90;;;;;;5094801;28;20047;-46
2023/04/26 02:24:51;;;;;;;4.05;2.08;;;5.60;99.90;;;;;;5112858;28;20047;-46
2023/04/26 02:27:18;;;;;;;3.97;2.58;;;5.50;99.90;;;;;;5089597;28;20048;-46
2023/04/26 02:29:45;;;;;;;3.83;2.60;;;5.50;99.90;;;;;;5108014;28;20500;-46
2023/04/26 02:32:13;;;;;;;6.03;3.00;;;5.40;99.90;;;;;;5073711;28;20462;-46
2023/04/26 02:34:40;;;;;;;;;;;5.50;99.90;;;;;;5093059;28;20052;-46
2023/04/26 02:37:07;;;;;;;5.03;3.10;;;5.50;99.90;;;;;;5101130;28;20338;-46
2023/04/26 02:39:34;;;;;;;4.63;2.80;;;5.50;99.90;;;;;;5112558;28;20054;-46
2023/04/26 02:42:01;;;;;;;6.22;3.08;;;5.50;99.90;;;;;;5094124;28;20105;-46
2023/04/26 02:44:29;;;;;;;5.13;2.95;;;5.50;99.90;;;;;;5101611;28;20105;-46
2023/04/26 02:46:57;;;;;;;7.57;3.55;;;5.50;99.90;;;;;;5065115;28;20047;-45
2023/04/26 02:49:24;;;;;;;4.82;3.17;;;5.50;99.90;;;;;;5062932;28;20071;-46
2023/04/26 02:51:52;;;;;;;6.60;3.30;;;5.50;99.90;;;;;;5094277;28;20031;-46
2023/04/26 02:54:18;;;;;;;6.38;3.70;;;5.50;99.90;;;;;;5093499;28;20130;-46
2023/04/26 02:56:46;;;;;;;;;;;5.50;99.90;;;;;;5093783;28;20047;-46
2023/04/26 02:59:12;;;;;;;10.57;4.38;;;5.50;99.90;;;;;;5101176;28;19928;-46
2023/04/26 03:01:39;;;;;;;5.63;3.70;;;5.50;99.90;;;;;;5112440;28;20035;-47
2023/04/26 03:04:06;;;;;;;5.95;4.28;;;5.50;99.90;;;;;;5094046;28;20043;-46
2023/04/26 03:06:35;;;;;;;7.75;4.10;;;5.40;99.90;;;;;;5093876;28;20130;-47
2023/04/26 03:09:02;;;;;;;6.57;3.63;;;5.40;99.90;;;;;;5108771;28;20047;-46
2023/04/26 03:11:28;;;;;;;6.38;4.00;;;5.40;99.90;;;;;;5112100;28;20070;-48
2023/04/26 03:13:55;;;;;;;6.20;3.67;;;5.40;99.90;;;;;;5112323;28;20119;-45
2023/04/26 03:16:22;;;;;;;8.13;3.95;;;5.30;99.90;;;;;;5083820;28;20390;-46
2023/04/26 03:18:49;;;;;;;;;;;5.30;99.90;;;;;;5094099;28;20039;-46
2023/04/26 03:21:17;;;;;;;6.45;3.90;;;5.30;99.90;;;;;;5092134;28;19924;-46
2023/04/26 03:23:44;;;;;;;8.93;4.47;;;5.30;99.90;;;;;;5057697;28;20049;-46
2023/04/26 03:26:10;;;;;;;7.55;4.30;;;5.30;99.90;;;;;;5089411;28;20492;-46
2023/04/26 03:28:37;;;;;;;9.20;4.88;;;5.30;99.90;;;;;;5080430;28;20055;-46
2023/04/26 03:31:04;;;;;;;7.38;4.13;;;5.20;99.90;;;;;;5085921;28;20503;-45
2023/04/26 03:33:31;;;;;;;5.78;3.67;;;5.20;99.90;;;;;;5059048;28;20139;-46
2023/04/26 03:35:58;;;;;;;6.72;3.65;;;5.20;99.90;;;;;;5055455;28;20089;-46
2023/04/26 03:38:25;;;;;;;5.13;3.47;;;5.20;99.90;;;;;;5063871;28;20062;-46
2023/04/26 03:40:51;;;;;;;8.02;4.28;;;5.20;99.90;;;;;;5059253;28;20040;-46
2023/04/26 03:43:18;;;;;;;4.75;2.63;;;5.20;99.90;;;;;;5086250;28;20410;-46
2023/04/26 03:45:48;;;;;;;7.50;3.78;;;5.30;99.90;;;;;;5082449;28;20036;-48
2023/04/26 03:48:16;;;;;;;5.60;3.30;;;5.20;99.90;;;;;;5080178;28;20065;-48
2023/04/26 03:50:44;;;;;;;6.53;3.47;;;5.20;99.90;;;;;;5067255;28;20248;-46
2023/04/26 03:53:11;;;;;;;6.53;3.45;;;5.30;99.90;;;;;;5092353;28;20408;-46
2023/04/26 03:55:39;;;;;;;;;;;5.20;99.90;;;;;;5088339;28;20032;-46
2023/04/26 03:58:06;;;;;;;6.05;3.47;;;5.10;99.90;;;;;;5069756;28;19920;-46
2023/04/26 04:00:37;;;;;;;6.57;4.00;;;5.10;99.90;;;;;;5061035;28;20462;-46
2023/04/26 04:03:05;;;;;;;13.50;4.18;;;5.00;99.90;;;;;;5069942;28;20051;-46
2023/04/26 04:05:33;;;;;;;7.53;4.40;;;4.90;99.90;;;;;;5064292;28;20155;-46
2023/04/26 04:08:00;;;;;;;7.35;4.30;;;4.80;99.90;;;;;;5067170;28;20048;-45
2023/04/26 04:10:27;;;;;;;;;;;4.80;99.90;;;;;;5050188;28;20044;-46
2023/04/26 04:12:54;;;;;;;9.25;4.68;;;4.70;99.90;;;;;;5081327;22;19924;-48
2023/04/26 04:15:22;;;;;;;8.93;5.03;;;4.70;99.90;;;;;;5076073;28;20055;-47
2023/04/26 04:17:49;;;;;;;7.95;4.80;;;4.70;99.90;;;;;;5087561;28;20043;-47
2023/04/26 04:20:16;;;;;;;7.28;4.35;;;4.70;99.90;;;;;;5084927;28;20388;-47
2023/04/26 04:22:43;;;;;;;6.18;4.25;;;4.80;99.90;;;;;;5083316;28;20077;-48
2023/04/26 04:25:09;;;;;;;8.45;3.78;;;4.80;99.90;;;;;;5085309;28;20046;-48
2023/04/26 04:27:37;;;;;;;6.78;4.35;;;4.80;99.90;;;;;;5074911;28;20043;-47
2023/04/26 04:30:06;;;;;;;7.45;4.43;;;4.80;99.90;;;;;;5085748;28;20067;-47
2023/04/26 04:32:38;;;;;;;9.82;4.65;;;4.80;99.90;;;;;;5056259;28;20039;-47
2023/04/26 04:35:06;;;;;;;8.48;3.72;;;4.80;99.90;;;;;;5098893;28;20074;-47
2023/04/26 04:37:33;;;;;;;7.30;3.90;;;4.80;99.90;;;;;;5075760;28;20454;-47
2023/04/26 04:40:00;;;;;;;8.88;4.97;;;4.80;99.90;;;;;;5070026;28;20127;-47
2023/04/26 04:42:31;;;;;;;8.90;4.32;;;4.80;99.90;;;;;;5074611;28;20063;-49
2023/04/26 04:44:58;;;;;;;11.50;4.43;;;4.80;99.90;;;;;;5088989;28;20058;-47
2023/04/26 04:47:26;;;;;;;7.55;4.35;;;4.90;99.90;;;;;;5067824;28;20665;-47
2023/04/26 04:49:53;;;;;;;7.22;4.38;;;4.90;99.90;;;;;;5092609;28;20036;-47
2023/04/26 04:52:20;;;;;;;7.68;4.15;;;5.00;99.90;;;;;;5092557;28;20043;-49
2023/04/26 04:54:47;;;;;;;;;;;5.00;99.90;;;;;;5074033;28;20052;-47
2023/04/26 04:57:15;;;;;;;8.40;4.82;;;5.10;99.90;;;;;;5093476;28;20026;-47
2023/04/26 04:59:43;;;;;;;9.23;4.97;;;5.10;99.90;;;;;;5063895;28;20469;-47
2023/04/26 05:02:10;;;;;;;12.10;5.20;;;5.10;99.90;;;;;;5066557;28;20051;-47
2023/04/26 05:04:37;;;;;;;13.10;5.85;;;5.10;99.90;;;;;;5074822;28;20040;-48
2023/04/26 05:07:05;;;;;;;8.57;4.65;;;5.20;99.90;;;;;;5072027;28;20547;-48
2023/04/26 05:09:33;;;;;;;8.85;5.05;;;5.20;99.90;;;;;;5070745;28;20051;-47
2023/04/26 05:12:02;;;;;;;10.95;5.47;;;5.20;99.90;;;;;;5090863;28;20040;-47
2023/04/26 05:14:29;;;;;;;10.35;5.53;;;5.20;99.90;;;;;;5095817;28;20040;-48
2023/04/26 05:16:57;;;;;;;;;;;5.20;99.90;;;;;;5096288;28;20078;-48
2023/04/26 05:19:24;;;;;;;7.53;4.70;;;5.30;99.90;;;;;;5065528;28;20311;-46
2023/04/26 05:21:51;;;;;;;12.98;5.07;;;5.30;99.90;;;;;;5075703;28;20105;-47
2023/04/26 05:24:18;;;;;;;;;;;5.30;99.90;;;;;;5081419;28;20101;-45
2023/04/26 05:26:45;;;;;;;8.57;4.95;;;5.30;99.90;;;;;;5085025;28;19920;-45
2023/04/26 05:29:29;;;;;;;11.50;5.55;;;5.40;99.90;;;;;;5067916;28;20043;-47
2023/04/26 05:32:13;;;;;;;11.32;5.55;;;5.10;99.90;;;;;;5090066;28;20688;-47
2023/04/26 05:34:50;;;;;;;13.27;5.88;;;5.40;99.90;;;;;;5088059;28;20407;-47
2023/04/26 05:37:17;;;;;;;10.15;4.72;;;5.40;99.90;;;;;;5082696;28;20048;-48
2023/04/26 05:39:44;;;;;;;9.40;4.95;;;5.40;99.90;;;;;;5085491;28;20122;-47
2023/04/26 05:42:11;;;;;;;8.45;5.07;;;5.40;99.90;;;;;;5094399;28;20055;-47
2023/04/26 05:44:38;;;;;;;10.50;5.80;;;5.40;99.90;;;;;;5095896;28;20043;-47
2023/04/26 05:47:05;;;;;;;10.23;5.13;;;5.40;99.90;;;;;;5072695;28;20048;-47
2023/04/26 05:49:32;;;;;;;10.48;5.50;;;5.40;99.90;;;;;;5082932;28;20040;-47
2023/04/26 05:51:59;;;;;;;10.02;4.70;;;5.50;99.90;;;;;;5095632;28;20062;-48
2023/04/26 05:54:26;;;;;;;8.43;5.32;;;5.60;99.90;;;;;;5084802;28;20050;-47
2023/04/26 05:56:54;;;;;;;9.52;5.13;;;5.60;99.90;;;;;;5108705;28;20486;-47
2023/04/26 05:59:23;;;;;;;12.40;5.57;;;5.70;99.90;;;;;;5082812;28;20116;-47
2023/04/26 06:01:50;;;;;;;11.30;5.40;;;5.80;99.90;;;;;;5095062;28;20142;-48
2023/04/26 06:04:17;;;;;;;11.20;6.35;;;5.90;99.90;;;;;;5087998;28;20165;-47
2023/04/26 06:07:00;;;;;;;8.60;4.80;;;6.10;99.90;;;;;;5095196;28;20047;-47
2023/04/26 06:09:27;;;;;;;10.35;5.18;;;6.20;99.90;;;;;;5094593;28;20073;-47
2023/04/26 06:11:53;;;;;;;11.20;5.47;;;6.20;99.90;;;;;;5113231;28;20036;-47
2023/04/26 06:14:20;;;;;;;10.63;5.25;;;6.30;99.90;;;;;;5076952;28;20036;-47
2023/04/26 06:17:00;;;;;;;9.95;5.30;;;6.30;99.90;;;;;;5074722;28;20051;-46
2023/04/26 06:19:27;;;;;;;10.63;5.22;;;6.40;99.90;;;;;;5074493;28;20056;-47
2023/04/26 06:21:55;;;;;;;11.90;5.97;;;6.40;99.90;;;;;;5081117;28;20040;-47
2023/04/26 06:24:25;;;;;;;11.80;5.20;;;6.50;99.90;;;;;;5094914;28;20039;-48
2023/04/26 06:26:52;;;;;;;11.13;4.78;;;6.60;99.90;;;;;;5094544;28;20112;-47
2023/04/26 06:29:20;;;;;;;9.75;4.68;;;6.60;99.90;;;;;;5083506;28;20040;-49
2023/04/26 06:31:47;;;;;;;10.85;5.45;;;6.50;99.90;;;;;;5094203;28;20066;-47
2023/04/26 06:34:14;;;;;;;9.52;4.57;;;6.60;99.90;;;;;;5112653;28;20042;-49
2023/04/26 06:36:41;;;;;;;11.43;5.45;;;6.70;99.90;;;;;;5067074;28;20055;-47
2023/04/26 06:39:08;;;;;;;;;;;6.70;99.90;;;;;;5090970;28;20518;-47
2023/04/26 06:41:37;;;;;;;;;;;6.70;99.90;;;;;;5094201;28;19920;-47
2023/04/26 06:44:03;;;;;;;10.68;4.53;;;6.60;99.90;;;;;;5091055;28;19965;-47
2023/04/26 06:46:30;;;;;;;9.73;5.40;;;6.70;99.90;;;;;;5065024;28;20089;-47
2023/04/26 06:48:57;;;;;;;15.07;5.53;;;6.90;99.90;;;;;;5093896;28;20138;-47
2023/04/26 06:51:24;;;;;;;10.40;5.78;;;7.10;99.90;;;;;;5093999;28;20040;-47
2023/04/26 06:53:51;;;;;;;10.55;5.18;;;7.30;99.90;;;;;;5101812;28;20039;-48
2023/04/26 06:56:18;;;;;;;9.98;4.25;;;7.40;99.90;;;;;;5080768;28;20039;-47
2023/04/26 06:59:03;;;;;;;8.93;4.25;;;7.60;99.90;;;;;;5111921;28;20035;-47
2023/04/26 07:01:32;;;;;;;8.57;4.00;;;7.90;99.90;;;;;;5112312;28;20040;-47
2023/04/26 07:04:02;;;;;;;9.18;4.60;;;8.00;99.90;;;;;;5100796;28;20036;-47
2023/04/26 07:06:32;;;;;;;7.88;4.30;;;8.00;99.90;;;;;;5104608;28;20403;-47
2023/04/26 07:09:01;;;;;;;12.10;4.50;;;7.80;99.90;;;;;;5111310;28;20048;-48
2023/04/26 07:11:28;;;;;;;8.88;4.95;;;7.70;99.90;;;;;;5112330;28;20104;-47
2023/04/26 07:13:55;;;;;;;9.07;4.70;;;7.60;99.90;;;;;;5097810;28;20048;-47
2023/04/26 07:16:23;;;;;;;12.30;5.25;;;7.40;99.90;;;;;;5111438;28;20040;-48
2023/04/26 07:18:51;;;;;;;9.32;4.57;;;7.30;99.90;;;;;;5111524;28;20126;-48
2023/04/26 07:21:18;;;;;;;9.48;5.18;;;7.30;99.90;;;;;;5112002;28;20122;-47
2023/04/26 07:23:45;;;;;;;10.38;5.22;;;7.10;99.90;;;;;;5099182;28;20036;-48
2023/04/26 07:26:12;;;;;;;10.35;5.60;;;7.00;99.90;;;;;;5098358;28;20075;-47
2023/04/26 07:28:38;;;;;;;14.77;6.50;;;7.00;99.90;;;;;;5111594;28;20073;-49
2023/04/26 07:31:05;;;;;;;10.20;5.82;;;7.10;99.90;;;;;;5111805;28;20043;-47
2023/04/26 07:33:34;;;;;;;13.52;5.57;;;7.50;99.90;;;;;;5110634;28;20519;-48
2023/04/26 07:36:01;;;;;;;11.02;5.05;;;8.00;99.90;;;;;;5072887;28;20488;-47
2023/04/26 07:38:28;;;;;;;7.20;4.28;;;8.30;99.90;;;;;;5091758;28;20140;-49
2023/04/26 07:40:55;;;;;;;11.80;5.05;;;8.50;99.90;;;;;;5111919;28;20077;-48
2023/04/26 07:43:22;;;;;;;7.22;4.68;;;8.80;99.90;;;;;;5110894;28;20040;-48
2023/04/26 07:45:48;;;;;;;10.18;4.80;;;9.00;99.90;;;;;;5111941;28;20047;-47
2023/04/26 07:48:16;;;;;;;10.52;5.35;;;9.00;99.90;;;;;;5094377;28;20069;-50
2023/04/26 07:50:42;;;;;;;10.77;4.80;;;9.30;99.90;;;;;;5111527;28;20081;-47
2023/04/26 07:53:09;;;;;;;6.03;4.03;;;9.30;99.90;;;;;;5111157;28;20048;-48
2023/04/26 07:55:36;;;;;;;10.70;4.45;;;9.30;99.90;;;;;;5103143;28;20124;-47
2023/04/26 07:58:03;;;;;;;9.82;3.90;;;9.20;99.90;;;;;;5111512;28;20043;-50
2023/04/26 08:00:30;;;;;;;7.60;4.18;;;9.20;99.90;;;;;;5104447;28;20061;-47
2023/04/26 08:02:56;;;;;;;8.40;5.03;;;9.20;99.90;;;;;;5105777;28;20043;-48
2023/04/26 08:05:24;;;;;;;7.32;4.32;;;9.20;99.90;;;;;;5110375;28;20492;-47
2023/04/26 08:07:51;;;;;;;;;;;9.40;99.90;;;;;;5112123;28;20407;-51
2023/04/26 08:10:18;;;;;;;7.13;3.00;;;9.50;99.90;;;;;;5106252;28;19977;-47
2023/04/26 08:12:45;;;;;;;7.43;3.28;;;9.70;99.90;;;;;;5085982;28;20051;-47
2023/04/26 08:15:12;;;;;;;8.10;4.78;;;9.70;99.90;;;;;;5094688;28;20039;-48
2023/04/26 08:17:40;;;;;;;5.32;3.28;;;10.00;99.90;;;;;;5110170;28;20071;-47
2023/04/26 08:20:08;;;;;;;4.68;2.80;;;9.80;99.90;;;;;;5108987;28;20047;-48
2023/04/26 08:22:35;;;;;;;8.27;3.65;;;9.40;99.90;;;;;;5086545;28;20097;-48
2023/04/26 08:25:03;;;;;;;5.82;3.03;;;9.20;99.90;;;;;;5108120;28;20043;-49
2023/04/26 08:27:30;;;;;;;5.47;3.10;;;9.10;99.90;;;;;;5111445;28;20051;-50
2023/04/26 08:29:57;;;;;;;6.53;3.38;;;8.90;99.90;;;;;;5100165;28;20062;-47
2023/04/26 08:32:24;;;;;;;7.88;4.18;;;8.80;99.90;;;;;;5096230;28;20044;-47
2023/04/26 08:34:51;;;;;;;;;;;8.70;99.90;;;;;;5077553;28;20040;-47
2023/04/26 08:37:18;;;;;;;6.20;4.28;;;8.90;99.90;;;;;;5092103;28;19920;-48
2023/04/26 08:39:45;;;;;;;3.40;2.78;;;9.10;99.90;;;;;;5092926;28;20047;-50
2023/04/26 08:42:14;;;;;;;5.55;3.30;;;9.10;99.90;;;;;;5092284;28;20039;-48
2023/04/26 08:44:42;;;;;;;7.40;3.85;;;9.20;99.90;;;;;;5088144;28;20097;-47
2023/04/26 08:47:16;;;;;;;6.65;3.70;;;9.40;99.90;;;;;;5093195;28;20302;-48
2023/04/26 08:49:46;;;;;;;5.80;3.22;;;9.40;99.90;;;;;;5092135;28;20094;-48
2023/04/26 08:52:16;;;;;;;3.03;2.22;;;9.60;99.90;;;;;;5113433;28;20067;-48
2023/04/26 08:54:45;;;;;;;5.57;1.95;;;9.60;99.90;;;;;;5112773;28;20122;-47
2023/04/26 08:57:12;;;;;;;3.70;2.45;;;9.60;99.90;;;;;;5101339;28;20090;-48
2023/04/26 08:59:40;;;;;;;5.18;3.10;;;9.70;99.90;;;;;;5092723;28;20044;-47
2023/04/26 09:02:09;;;;;;;6.70;2.70;;;9.90;99.90;;;;;;5088161;28;20485;-47
2023/04/26 09:04:36;;;;;;;4.13;2.65;;;10.10;99.90;;;;;;5104051;28;20043;-47
2023/04/26 09:07:06;;;;;;;6.05;3.33;;;10.20;99.90;;;;;;5112549;28;20097;-48
2023/04/26 09:09:41;;;;;;;5.03;3.25;;;10.20;99.90;;;;;;5105028;28;20031;-48
2023/04/26 09:12:07;;;;;;;5.88;3.33;;;10.10;99.90;;;;;;5113453;28;20044;-47
2023/04/26 09:14:34;;;;;;;4.63;2.90;;;9.90;99.90;;;;;;5111013;28;20054;-47
2023/04/26 09:17:01;;;;;;;2.95;2.13;;;10.00;99.90;;;;;;5112201;28;20075;-48
2023/04/26 09:19:35;;;;;;;5.32;1.92;;;10.10;99.90;;;;;;5113038;28;20039;-47
2023/04/26 09:22:03;;;;;;;3.78;2.10;;;10.20;99.90;;;;;;5114421;28;20449;-48
2023/04/26 09:24:51;;;;;;;3.42;2.17;;;10.40;99.90;;;;;;5093062;28;20102;-47
2023/04/26 09:27:18;;;;;;;1.70;1.25;;;10.60;99.90;;;;;;5076662;28;20036;-47
2023/04/26 09:30:04;;;;;;;1.48;1.17;;;10.90;99.90;;;;;;5108926;28;20074;-48
2023/04/26 09:32:50;;;;;;;1.50;1.10;;;11.20;99.90;;;;;;5073484;28;20052;-48
2023/04/26 09:35:33;;;;;;;5.07;1.83;;;11.50;99.90;;;;;;5097376;28;20043;-47
2023/04/26 09:38:02;;;;;;;2.53;1.08;;;11.70;99.90;;;;;;5113126;28;20085;-48
2023/04/26 09:40:49;;;;;;;1.95;1.08;;;11.60;99.90;;;;;;5112674;28;20038;-48
2023/04/26 09:43:17;;;;;;;0.95;0.70;;;11.70;99.90;;;;;;5090008;28;20449;-48
2023/04/26 09:45:51;;;;;;;1.67;1.02;;;11.60;99.90;;;;;;5113888;28;20476;-48
2023/04/26 09:48:21;;;;;;;1.40;1.30;;;11.70;99.90;;;;;;5113405;28;20048;-48
2023/04/26 09:50:51;;;;;;;2.35;1.27;;;12.10;99.90;;;;;;5109703;28;20047;-48
2023/04/26 09:53:37;;;;;;;4.32;1.33;;;12.50;99.90;;;;;;5072795;28;20045;-48
2023/04/26 09:56:10;;;;;;;3.10;1.27;;;12.80;99.90;;;;;;5079721;28;20040;-49
2023/04/26 09:58:42;;;;;;;2.10;1.70;;;13.00;99.90;;;;;;5113336;28;20031;-48
2023/04/26 10:01:10;;;;;;;2.58;1.15;;;12.90;99.90;;;;;;5108838;28;20105;-48
2023/04/26 10:03:38;;;;;;;3.33;1.30;;;13.00;99.90;;;;;;5102635;28;20479;-47
2023/04/26 10:06:05;;;;;;;3.72;1.25;;;12.80;99.90;;;;;;5112777;28;20044;-48
2023/04/26 10:08:32;;;;;;;1.50;1.10;;;12.50;99.90;;;;;;5100373;28;20446;-48
2023/04/26 10:11:03;;;;;;;3.95;1.08;;;12.00;99.90;;;;;;5113467;28;20434;-48
2023/04/26 10:17:43;;;;;;;1.92;0.90;;;12.00;99.90;;;;;;5060896;28;20063;-50
2023/04/26 10:20:13;;;;;;;1.58;1.10;;;12.00;99.90;;;;;;5072095;28;20504;-47
2023/04/26 10:22:45;;;;;;;1.27;0.90;;;12.20;99.90;;;;;;5069691;28;20040;-47
2023/04/26 10:25:12;;;;;;;3.22;0.82;;;12.80;99.90;;;;;;5075500;28;20068;-48
2023/04/26 10:27:45;;;;;;;1.35;0.98;;;13.20;99.90;;;;;;5066243;28;20086;-47
2023/04/26 10:30:14;;;;;;;1.27;1.00;;;13.00;99.90;;;;;;5092097;28;20082;-47
2023/04/26 10:32:55;;;;;;;1.50;0.98;;;12.80;99.90;;;;;;5086197;28;20052;-48
2023/04/26 10:35:23;;;;;;;2.90;1.20;;;12.80;99.90;;;;;;5084525;28;20059;-47
2023/04/26 10:38:02;;;;;;;3.22;1.55;;;12.60;99.90;;;;;;5091416;28;20070;-48
2023/04/26 10:40:35;;;;;;;8.15;1.40;;;12.50;99.90;;;;;;5090699;28;20115;-48
2023/04/26 10:43:10;;;;;;;3.47;1.88;;;12.50;99.90;;;;;;5079851;28;20076;-47
2023/04/26 10:45:39;;;;;;;3.28;1.60;;;12.50;99.90;;;;;;5092237;28;20078;-47
2023/04/26 10:48:35;;;;;;;3.20;2.00;;;12.30;99.90;;;;;;5091978;28;20048;-47
2023/04/26 10:51:07;;;;;;;6.03;1.77;;;12.00;99.90;;;;;;5065803;28;20127;-47
2023/04/26 10:53:43;;;;;;;3.10;1.98;;;12.00;99.90;;;;;;5086297;28;20044;-49
2023/04/26 10:56:10;;;;;;;4.40;2.20;;;12.00;99.90;;;;;;5078765;28;20068;-48
2023/04/26 10:58:40;;;;;;;3.17;1.77;;;12.20;99.90;;;;;;5091622;28;20032;-47
2023/04/26 11:01:13;;;;;;;3.72;2.00;;;12.50;99.90;;;;;;5091653;28;20032;-47
2023/04/26 11:03:40;;;;;;;1.98;1.55;;;12.60;99.90;;;;;;5086373;28;20040;-47
2023/04/26 11:06:08;;;;;;;3.83;1.70;;;13.00;99.90;;;;;;5077569;28;20036;-49
2023/04/26 11:08:35;;;;;;;3.55;1.50;;;13.10;99.90;;;;;;5091567;28;20338;-47
2023/04/26 11:11:02;;;;;;;2.65;1.30;;;13.30;99.90;;;;;;5090096;28;20048;-47
2023/04/26 11:13:34;;;;;;;2.65;1.70;;;13.20;99.90;;;;;;5091758;28;20504;-47
2023/04/26 11:16:03;;;;;;;3.92;1.98;;;13.10;99.90;;;;;;5078422;28;20075;-47
2023/04/26 11:18:31;;;;;;;3.30;2.15;;;13.10;99.90;;;;;;5091236;28;20447;-47
2023/04/26 11:20:59;;;;;;;2.63;1.65;;;12.60;99.90;;;;;;5090182;28;20036;-47
2023/04/26 11:23:28;;;;;;;6.72;1.88;;;12.50;99.90;;;;;;5086562;28;20036;-47
2023/04/26 11:26:07;;;;;;;6.15;2.00;;;12.40;99.90;;;;;;5079748;28;20036;-47
2023/04/26 11:28:36;;;;;;;4.63;2.10;;;12.00;99.90;;;;;;5089882;28;20118;-48
2023/04/26 11:31:04;;;;;;;4.70;1.73;;;11.80;99.90;;;;;;5081133;28;20040;-47
2023/04/26 11:33:32;;;;;;;4.43;2.58;;;11.90;99.90;;;;;;5090906;28;20052;-47
2023/04/26 11:35:59;;;;;;;6.20;2.25;;;12.00;99.90;;;;;;5091070;28;20044;-47
2023/04/26 11:38:27;;;;;;;4.90;2.00;;;12.10;99.90;;;;;;5089713;28;20447;-47
2023/04/26 11:41:02;;;;;;;2.25;1.42;;;12.00;99.90;;;;;;5079766;28;20040;-48
2023/04/26 11:43:36;;;;;;;2.38;1.30;;;12.10;99.90;;;;;;5078881;28;20043;-47
2023/04/26 11:46:05;;;;;;;2.00;1.42;;;12.20;99.90;;;;;;5090907;28;20050;-47
2023/04/26 11:48:34;;;;;;;2.60;1.52;;;12.20;99.90;;;;;;5090620;28;20044;-47
2023/04/26 11:51:03;;;;;;;2.47;1.52;;;12.30;99.90;;;;;;5085779;28;20099;-47
2023/04/26 11:53:37;;;;;;;2.88;1.48;;;12.60;99.90;;;;;;5084980;28;20050;-47
2023/04/26 11:56:19;;;;;;;2.67;1.20;;;13.10;99.90;;;;;;5090961;28;20459;-47
2023/04/26 11:58:50;;;;;;;2.88;1.30;;;13.00;99.90;;;;;;5090817;28;20045;-47
2023/04/26 12:01:28;;;;;;;2.67;1.50;;;12.90;99.90;;;;;;5073820;28;20028;-47
2023/04/26 12:03:57;;;;;;;6.03;1.77;;;13.00;99.90;;;;;;5097676;28;20048;-45
2023/04/26 12:06:40;;;;;;;3.63;1.40;;;13.20;99.90;;;;;;5086534;28;20036;-47
2023/04/26 12:09:10;;;;;;;2.90;1.40;;;13.20;99.90;;;;;;5084376;28;20123;-50
2023/04/26 12:11:37;;;;;;;3.33;1.30;;;13.20;99.90;;;;;;5091838;28;20059;-47
2023/04/26 12:14:04;;;;;;;6.80;1.73;;;13.60;99.90;;;;;;5096668;28;20048;-48
2023/04/26 12:16:34;;;;;;;1.75;1.20;;;13.90;99.90;;;;;;5079720;28;20535;-47
2023/04/26 12:19:05;;;;;;;1.98;1.08;;;13.80;99.90;;;;;;5082387;28;20044;-48
2023/04/26 12:21:42;;;;;;;2.47;1.65;;;14.00;99.90;;;;;;5097381;28;20052;-47
2023/04/26 12:24:32;;;;;;;6.33;1.50;;;14.00;99.90;;;;;;5098008;28;20040;-45
2023/04/26 12:26:59;;;;;;;3.75;1.63;;;13.80;99.90;;;;;;5089852;28;20040;-47
2023/04/26 12:29:29;;;;;;;4.15;1.75;;;13.70;99.90;;;;;;5090528;28;20123;-47
2023/04/26 12:31:57;;;;;;;2.08;1.40;;;13.70;99.90;;;;;;5097217;28;20492;-46
2023/04/26 12:34:24;;;;;;;3.42;1.92;;;13.70;99.90;;;;;;5097544;28;20078;-48
2023/04/26 12:36:51;;;;;;;;;;;14.20;99.80;;;;;;5081690;28;20048;-47
2023/04/26 12:39:18;;;;;;;4.88;1.38;;;14.20;99.90;;;;;;5089504;28;20345;-49
2023/04/26 12:41:45;;;;;;;2.22;1.35;;;14.20;99.00;;;;;;5097472;28;20061;-46
2023/04/26 12:44:13;;;;;;;;;;;14.30;99.90;;;;;;5096506;28;20040;-48
2023/04/26 12:46:40;;;;;;;3.20;1.35;;;14.60;98.10;;;;;;5076927;28;20019;-47
2023/04/26 12:49:07;;;;;;;3.92;2.00;;;14.70;97.90;;;;;;5079385;28;20075;-47
2023/04/26 12:51:34;;;;;;;4.32;1.83;;;14.40;99.90;;;;;;5094710;28;20274;-47
2023/04/26 12:54:00;;;;;;;3.72;1.90;;;13.90;99.90;;;;;;5097141;28;20044;-47
2023/04/26 12:56:28;;;;;;;4.45;1.65;;;13.40;99.90;;;;;;5077421;28;20068;-47
2023/04/26 12:58:55;;;;;;;4.72;1.65;;;13.10;99.90;;;;;;5094004;28;20076;-47
2023/04/26 13:01:21;;;;;;;2.72;1.85;;;12.80;99.90;;;;;;5097080;28;20040;-46
2023/04/26 13:03:48;;;;;;;2.97;1.92;;;12.40;99.90;;;;;;5097245;28;20044;-47
2023/04/26 13:06:15;;;;;;;3.05;2.08;;;12.20;99.90;;;;;;5079937;28;20116;-47
2023/04/26 13:08:42;;;;;;;3.33;2.22;;;12.10;99.90;;;;;;5076871;28;20044;-47
2023/04/26 13:11:09;;;;;;;2.03;1.70;;;12.00;99.90;;;;;;5059046;28;20456;-47